createdAt,value
2018-08-11T00:02:25.719Z,10.20
2018-08-11T00:04:54.026Z,10.40
2018-08-11T00:07:22.333Z,10.60
2018-08-11T00:09:50.637Z,10.70
2018-08-11T00:12:19.019Z,10.80
2018-08-11T00:14:47.355Z,10.90
2018-08-11T00:17:15.690Z,11.10
2018-08-11T00:19:44.044Z,11.30
2018-08-11T00:22:12.361Z,11.40
2018-08-11T00:24:40.707Z,11.60
2018-08-11T00:27:09.030Z,11.70
2018-08-11T00:29:38.230Z,11.90
2018-08-11T00:32:06.595Z,12.00
2018-08-11T00:34:34.899Z,12.10
2018-08-11T00:37:03.226Z,12.20
2018-08-11T00:39:31.650Z,12.30
2018-08-11T00:42:00.148Z,12.30
2018-08-11T00:44:28.605Z,12.30
2018-08-11T00:46:57.022Z,12.40
2018-08-11T00:49:25.607Z,12.20
2018-08-11T00:51:54.016Z,12.30
2018-08-11T00:54:22.463Z,12.30
2018-08-11T00:56:50.909Z,12.40
2018-08-11T00:59:19.434Z,12.30
2018-08-11T01:01:47.926Z,12.30
2018-08-11T01:04:16.449Z,12.30
2018-08-11T01:06:44.883Z,12.30
2018-08-11T01:09:13.426Z,12.30
2018-08-11T01:11:41.954Z,12.40
2018-08-11T01:14:10.432Z,12.50
2018-08-11T01:16:38.945Z,12.50
2018-08-11T01:19:07.468Z,12.50
2018-08-11T01:21:35.965Z,12.50
2018-08-11T01:24:04.336Z,12.50
2018-08-11T01:26:32.799Z,12.50
2018-08-11T01:29:01.155Z,12.50
2018-08-11T01:31:29.578Z,12.50
2018-08-11T01:33:58.025Z,12.50
2018-08-11T01:36:26.412Z,12.50
2018-08-11T01:38:54.849Z,12.60
2018-08-11T01:41:24.375Z,12.50
2018-08-11T01:43:52.915Z,12.50
2018-08-11T01:46:21.455Z,12.60
2018-08-11T01:48:49.925Z,12.60
2018-08-11T01:51:18.394Z,12.60
2018-08-11T01:53:46.871Z,12.70
2018-08-11T01:56:15.327Z,12.60
2018-08-11T01:58:44.468Z,12.60
2018-08-11T02:01:12.913Z,12.60
2018-08-11T02:03:41.283Z,12.50
2018-08-11T02:06:09.723Z,12.50
2018-08-11T02:08:38.182Z,12.50
2018-08-11T02:11:06.889Z,12.60
2018-08-11T02:13:35.400Z,12.70
2018-08-11T02:16:03.889Z,12.80
2018-08-11T02:18:32.434Z,12.80
2018-08-11T02:21:01.067Z,12.80
2018-08-11T02:23:29.546Z,12.70
2018-08-11T02:25:58.027Z,12.70
2018-08-11T02:28:26.482Z,12.70
2018-08-11T02:30:55.038Z,12.80
2018-08-11T02:33:23.482Z,13.00
2018-08-11T02:35:51.900Z,13.00
2018-08-11T02:38:20.238Z,13.00
2018-08-11T02:40:48.722Z,12.90
2018-08-11T02:43:17.163Z,12.90
2018-08-11T02:45:45.701Z,12.90
2018-08-11T02:48:14.154Z,12.90
2018-08-11T02:50:42.687Z,12.90
2018-08-11T02:53:11.097Z,12.90
2018-08-11T02:55:39.476Z,12.90
2018-08-11T02:58:07.819Z,13.00
2018-08-11T03:00:36.353Z,13.00
2018-08-11T03:03:04.790Z,13.00
2018-08-11T03:05:33.163Z,13.00
2018-08-11T03:08:01.547Z,13.00
2018-08-11T03:10:29.948Z,13.00
2018-08-11T03:12:58.351Z,13.10
2018-08-11T03:15:26.768Z,13.10
2018-08-11T03:17:56.181Z,13.10
2018-08-11T03:20:24.645Z,13.20
2018-08-11T03:22:53.031Z,13.10
2018-08-11T03:25:21.444Z,13.20
2018-08-11T03:27:49.911Z,13.10
2018-08-11T03:30:18.389Z,13.20
2018-08-11T03:32:47.155Z,13.20
2018-08-11T03:35:15.731Z,13.20
2018-08-11T03:37:44.282Z,13.10
2018-08-11T03:40:12.688Z,13.10
2018-08-11T03:42:41.740Z,13.00
2018-08-11T03:45:10.235Z,13.00
2018-08-11T03:47:38.710Z,12.90
2018-08-11T03:50:07.510Z,12.80
2018-08-11T03:52:35.889Z,12.70
2018-08-11T03:55:04.315Z,12.70
2018-08-11T03:57:32.687Z,12.80
2018-08-11T04:00:01.256Z,12.80
2018-08-11T04:02:29.690Z,12.80
2018-08-11T04:04:59.638Z,12.80
2018-08-11T04:07:28.024Z,12.80
2018-08-11T04:09:56.405Z,12.70
2018-08-11T04:12:24.759Z,12.70
2018-08-11T04:14:54.150Z,12.50
2018-08-11T04:17:26.754Z,12.10
2018-08-11T04:19:55.132Z,11.70
2018-08-11T04:22:23.503Z,11.40
2018-08-11T04:24:51.903Z,11.20
2018-08-11T04:27:20.362Z,11.00
2018-08-11T04:29:48.734Z,10.80
2018-08-11T04:32:17.142Z,10.70
2018-08-11T04:34:45.516Z,10.60
2018-08-11T04:37:13.877Z,10.60
2018-08-11T04:39:42.472Z,10.50
2018-08-11T04:42:10.909Z,10.50
2018-08-11T04:44:39.419Z,10.40
2018-08-11T04:47:07.776Z,10.40
2018-08-11T04:49:36.231Z,10.50
2018-08-11T04:52:04.735Z,10.40
2018-08-11T04:54:33.129Z,10.40
2018-08-11T04:57:01.582Z,10.30
2018-08-11T04:59:30.148Z,10.30
2018-08-11T05:01:58.706Z,10.40
2018-08-11T05:04:28.038Z,10.40
2018-08-11T05:06:58.513Z,10.40
2018-08-11T05:09:27.039Z,10.30
2018-08-11T05:11:55.680Z,10.30
2018-08-11T05:14:24.201Z,10.20
2018-08-11T05:16:52.592Z,10.20
2018-08-11T05:19:21.839Z,10.20
2018-08-11T05:21:51.848Z,10.10
2018-08-11T05:24:20.406Z,10.20
2018-08-11T05:26:51.366Z,10.20
2018-08-11T05:29:20.533Z,10.10
2018-08-11T05:31:50.291Z,10.10
2018-08-11T05:34:18.718Z,10.10
2018-08-11T05:36:49.134Z,10.20
2018-08-11T05:39:19.526Z,10.10
2018-08-11T05:41:48.261Z,10.20
2018-08-11T05:44:18.412Z,10.20
2018-08-11T05:46:47.213Z,10.30
2018-08-11T05:49:17.334Z,10.40
2018-08-11T05:51:46.837Z,10.50
2018-08-11T05:54:16.921Z,10.50
2018-08-11T05:56:46.490Z,10.50
2018-08-11T05:59:15.561Z,10.50
2018-08-11T06:01:44.548Z,10.60
2018-08-11T06:04:12.955Z,10.70
2018-08-11T06:06:42.433Z,10.70
2018-08-11T06:09:12.030Z,10.80
2018-08-11T06:11:40.412Z,10.90
2018-08-11T06:14:09.339Z,11.10
2018-08-11T06:16:37.835Z,11.10
2018-08-11T06:19:06.253Z,11.30
2018-08-11T06:21:34.858Z,11.40
2018-08-11T06:24:03.232Z,11.50
2018-08-11T06:26:31.718Z,11.60
2018-08-11T06:29:00.324Z,11.80
2018-08-11T06:31:28.827Z,11.80
2018-08-11T06:33:57.052Z,11.90
2018-08-11T06:36:25.429Z,12.10
2018-08-11T06:38:55.344Z,12.20
2018-08-11T06:41:25.456Z,12.20
2018-08-11T06:43:54.534Z,12.20
2018-08-11T06:46:22.860Z,12.10
2018-08-11T06:48:51.212Z,12.10
2018-08-11T06:51:19.704Z,12.00
2018-08-11T06:53:48.160Z,11.90
2018-08-11T06:56:16.746Z,12.10
2018-08-11T06:58:46.515Z,12.40
2018-08-11T07:01:15.813Z,12.50
2018-08-11T07:03:45.839Z,12.50
2018-08-11T07:06:15.408Z,12.30
2018-08-11T07:08:45.557Z,12.30
2018-08-11T07:11:14.588Z,12.60
2018-08-11T07:13:44.231Z,12.80
2018-08-11T07:16:13.563Z,12.90
2018-08-11T07:18:43.505Z,13.10
2018-08-11T07:21:12.131Z,13.10
2018-08-11T07:23:40.634Z,13.20
2018-08-11T07:26:09.335Z,13.30
2018-08-11T07:28:38.627Z,13.30
2018-08-11T07:31:08.675Z,13.30
2018-08-11T07:33:37.172Z,13.30
2018-08-11T07:36:05.814Z,13.20
2018-08-11T07:38:35.303Z,13.30
2018-08-11T07:41:03.644Z,13.40
2018-08-11T07:43:32.447Z,13.70
2018-08-11T07:46:01.198Z,13.90
2018-08-11T07:48:30.149Z,14.00
2018-08-11T07:51:00.046Z,14.10
2018-08-11T07:53:29.965Z,14.10
2018-08-11T07:55:58.825Z,13.80
2018-08-11T07:58:27.235Z,13.70
2018-08-11T08:00:56.964Z,13.90
2018-08-11T08:03:26.710Z,14.00
2018-08-11T08:05:57.136Z,14.10
2018-08-11T08:08:26.421Z,14.00
2018-08-11T08:10:55.011Z,14.20
2018-08-11T08:13:24.729Z,14.20
2018-08-11T08:15:53.734Z,14.10
2018-08-11T08:18:22.254Z,14.10
2018-08-11T08:20:50.668Z,14.20
2018-08-11T08:23:22.490Z,14.30
2018-08-11T08:25:51.970Z,14.60
2018-08-11T08:28:21.405Z,14.90
2018-08-11T08:30:49.796Z,15.30
2018-08-11T08:33:18.244Z,15.60
2018-08-11T08:35:46.708Z,15.70
2018-08-11T08:38:15.195Z,15.50
2018-08-11T08:40:43.919Z,15.50
2018-08-11T08:43:12.383Z,15.10
2018-08-11T08:45:42.150Z,15.10
2018-08-11T08:48:10.599Z,15.40
2018-08-11T08:50:39.082Z,15.60
2018-08-11T08:53:07.880Z,15.60
2018-08-11T08:55:37.275Z,15.20
2018-08-11T08:58:05.931Z,14.90
2018-08-11T09:00:34.449Z,14.70
2018-08-11T09:03:02.965Z,14.60
2018-08-11T09:05:31.435Z,14.70
2018-08-11T09:08:00.020Z,15.10
2018-08-11T09:10:28.475Z,15.50
2018-08-11T09:12:57.552Z,15.90
2018-08-11T09:15:26.035Z,16.30
2018-08-11T09:17:55.340Z,16.50
2018-08-11T09:20:24.143Z,16.60
2018-08-11T09:22:53.615Z,16.40
2018-08-11T09:25:23.706Z,16.60
2018-08-11T09:27:52.968Z,17.00
2018-08-11T09:30:21.883Z,17.20
2018-08-11T09:32:51.354Z,17.50
2018-08-11T09:35:20.436Z,17.50
2018-08-11T09:37:51.480Z,17.00
2018-08-11T09:40:19.938Z,16.80
2018-08-11T09:42:49.984Z,16.50
2018-08-11T09:45:18.613Z,16.50
2018-08-11T09:47:47.635Z,17.00
2018-08-11T09:50:16.616Z,16.80
2018-08-11T09:52:45.127Z,16.60
2018-08-11T09:55:13.665Z,16.70
2018-08-11T09:57:42.595Z,16.50
2018-08-11T10:00:12.979Z,16.30
2018-08-11T10:02:41.541Z,16.40
2018-08-11T10:05:10.111Z,16.60
2018-08-11T10:07:38.611Z,16.80
2018-08-11T10:10:07.159Z,16.70
2018-08-11T10:12:36.591Z,16.00
2018-08-11T10:15:05.079Z,15.60
2018-08-11T10:17:33.539Z,15.50
2018-08-11T10:20:03.184Z,15.60
2018-08-11T10:22:34.318Z,15.80
2018-08-11T10:25:03.652Z,15.90
2018-08-11T10:27:32.252Z,15.90
2018-08-11T10:30:00.716Z,16.10
2018-08-11T10:32:30.329Z,16.20
2018-08-11T10:35:00.176Z,16.20
2018-08-11T10:37:29.960Z,16.40
2018-08-11T10:39:58.477Z,16.60
2018-08-11T10:42:28.286Z,17.00
2018-08-11T10:44:57.943Z,16.70
2018-08-11T10:47:27.083Z,16.90
2018-08-11T10:49:55.609Z,17.20
2018-08-11T10:52:25.643Z,17.00
2018-08-11T10:54:54.167Z,16.90
2018-08-11T10:57:23.022Z,17.10
2018-08-11T10:59:51.532Z,17.30
2018-08-11T11:02:21.388Z,17.50
2018-08-11T11:04:50.982Z,17.70
2018-08-11T11:07:20.080Z,17.80
2018-08-11T11:09:48.590Z,17.80
2018-08-11T11:12:17.046Z,17.70
2018-08-11T11:14:45.788Z,17.70
2018-08-11T11:17:16.949Z,17.60
2018-08-11T11:19:45.530Z,17.80
2018-08-11T11:22:14.934Z,17.80
2018-08-11T11:24:43.520Z,17.70
2018-08-11T11:27:11.985Z,17.50
2018-08-11T11:29:40.453Z,17.50
2018-08-11T11:32:09.233Z,17.60
2018-08-11T11:34:42.627Z,18.00
2018-08-11T11:37:11.174Z,18.20
2018-08-11T11:39:39.601Z,18.30
2018-08-11T11:42:09.064Z,18.40
2018-08-11T11:44:37.563Z,18.50
2018-08-11T11:47:06.045Z,18.70
2018-08-11T11:49:35.364Z,18.80
2018-08-11T11:52:04.578Z,18.80
2018-08-11T11:54:33.019Z,18.70
2018-08-11T11:57:02.863Z,18.50
2018-08-11T11:59:32.328Z,18.60
2018-08-11T12:02:00.827Z,19.00
2018-08-11T12:04:29.319Z,19.50
2018-08-11T12:06:58.868Z,19.60
2018-08-11T12:09:27.454Z,19.30
2018-08-11T12:11:55.936Z,19.40
2018-08-11T12:14:25.148Z,19.50
2018-08-11T12:16:55.261Z,19.50
2018-08-11T12:19:25.433Z,19.30
2018-08-11T12:21:53.861Z,19.60
2018-08-11T12:24:22.287Z,19.80
2018-08-11T12:26:50.750Z,20.30
2018-08-11T12:29:19.366Z,20.00
2018-08-11T12:31:49.333Z,20.10
2018-08-11T12:34:18.779Z,19.90
2018-08-11T12:36:48.282Z,19.50
2018-08-11T12:39:17.355Z,19.50
2018-08-11T12:41:45.942Z,19.90
2018-08-11T12:44:14.851Z,20.30
2018-08-11T12:46:44.396Z,20.10
2018-08-11T12:49:12.880Z,20.40
2018-08-11T12:51:41.299Z,20.50
2018-08-11T12:54:09.685Z,20.60
2018-08-11T12:56:38.162Z,20.40
2018-08-11T12:59:06.590Z,20.30
2018-08-11T13:01:35.088Z,19.80
2018-08-11T13:04:04.476Z,19.50
2018-08-11T13:06:32.917Z,19.70
2018-08-11T13:09:01.362Z,19.70
2018-08-11T13:11:29.779Z,20.00
2018-08-11T13:14:01.027Z,20.50
2018-08-11T13:16:29.515Z,20.80
2018-08-11T13:18:58.083Z,21.10
2018-08-11T13:21:26.558Z,21.30
2018-08-11T13:23:54.987Z,21.60
2018-08-11T13:26:23.406Z,21.40
2018-08-11T13:28:51.889Z,21.60
2018-08-11T13:31:20.412Z,22.00
2018-08-11T13:33:49.016Z,22.30
2018-08-11T13:36:17.957Z,22.30
2018-08-11T13:38:46.423Z,22.40
2018-08-11T13:41:14.961Z,21.80
2018-08-11T13:43:43.414Z,21.10
2018-08-11T13:46:11.877Z,21.10
2018-08-11T13:48:40.355Z,21.30
2018-08-11T13:51:09.000Z,21.00
2018-08-11T13:53:37.442Z,21.40
2018-08-11T13:56:06.246Z,21.10
2018-08-11T13:58:34.818Z,20.00
2018-08-11T14:01:03.412Z,20.50
2018-08-11T14:03:32.067Z,20.20
2018-08-11T14:06:00.587Z,19.70
2018-08-11T14:08:29.123Z,19.00
2018-08-11T14:10:57.683Z,18.80
2018-08-11T14:13:26.119Z,18.40
2018-08-11T14:15:54.877Z,18.30
2018-08-11T14:18:23.446Z,18.20
2018-08-11T14:20:52.183Z,18.10
2018-08-11T14:23:20.663Z,19.00
2018-08-11T14:25:49.421Z,20.10
2018-08-11T14:28:17.868Z,21.20
2018-08-11T14:30:46.422Z,22.60
2018-08-11T14:33:15.093Z,22.70
2018-08-11T14:35:43.684Z,21.60
2018-08-11T14:38:12.482Z,21.50
2018-08-11T14:40:41.130Z,21.90
2018-08-11T14:43:09.805Z,22.50
2018-08-11T14:45:38.301Z,22.80
2018-08-11T14:48:06.869Z,23.30
2018-08-11T14:50:35.645Z,23.50
2018-08-11T14:53:04.476Z,23.90
2018-08-11T14:55:32.999Z,23.50
2018-08-11T14:58:01.717Z,23.30
2018-08-11T15:00:30.256Z,22.90
2018-08-11T15:02:58.743Z,22.60
2018-08-11T15:05:27.544Z,22.20
2018-08-11T15:07:56.173Z,21.30
2018-08-11T15:10:24.796Z,21.60
2018-08-11T15:12:53.692Z,21.80
2018-08-11T15:15:22.663Z,22.10
2018-08-11T15:17:51.261Z,22.70
2018-08-11T15:20:20.201Z,23.00
2018-08-11T15:22:49.111Z,21.70
2018-08-11T15:25:17.710Z,21.40
2018-08-11T15:27:46.291Z,20.90
2018-08-11T15:30:14.804Z,20.40
2018-08-11T15:32:43.298Z,20.00
2018-08-11T15:35:11.934Z,20.00
2018-08-11T15:37:40.504Z,20.60
2018-08-11T15:40:09.541Z,21.60
2018-08-11T15:42:38.155Z,22.70
2018-08-11T15:45:07.390Z,23.30
2018-08-11T15:47:36.387Z,23.50
2018-08-11T15:50:05.376Z,23.80
2018-08-11T15:52:34.198Z,24.20
2018-08-11T15:55:02.865Z,24.30
2018-08-11T15:57:31.387Z,23.60
2018-08-11T16:00:02.673Z,22.10
2018-08-11T16:02:31.531Z,22.00
2018-08-11T16:05:00.018Z,22.40
2018-08-11T16:07:28.436Z,22.80
2018-08-11T16:09:57.080Z,22.30
2018-08-11T16:12:25.608Z,21.60
2018-08-11T16:14:54.256Z,20.90
2018-08-11T16:17:22.777Z,20.20
2018-08-11T16:19:51.293Z,20.10
2018-08-11T16:22:19.796Z,19.80
2018-08-11T16:24:48.298Z,19.60
2018-08-11T16:27:16.727Z,20.20
2018-08-11T16:29:45.214Z,19.90
2018-08-11T16:32:13.807Z,19.50
2018-08-11T16:34:42.305Z,19.00
2018-08-11T16:37:10.780Z,19.60
2018-08-11T16:39:39.813Z,20.70
2018-08-11T16:42:08.411Z,21.30
2018-08-11T16:44:36.937Z,22.40
2018-08-11T16:47:05.784Z,23.20
2018-08-11T16:49:34.367Z,23.90
2018-08-11T16:52:03.454Z,22.60
2018-08-11T16:54:32.300Z,22.40
2018-08-11T16:57:00.776Z,22.90
2018-08-11T16:59:29.298Z,22.90
2018-08-11T17:01:57.815Z,22.90
2018-08-11T17:04:26.505Z,22.50
2018-08-11T17:06:54.936Z,22.60
2018-08-11T17:09:23.430Z,22.00
2018-08-11T17:11:51.956Z,21.50
2018-08-11T17:14:21.287Z,21.30
2018-08-11T17:16:49.663Z,21.40
2018-08-11T17:19:18.204Z,21.20
2018-08-11T17:21:46.778Z,20.20
2018-08-11T17:24:15.320Z,19.40
2018-08-11T17:26:43.888Z,19.00
2018-08-11T17:29:12.355Z,19.40
2018-08-11T17:31:40.975Z,20.10
2018-08-11T17:34:09.443Z,20.80
2018-08-11T17:36:37.944Z,21.20
2018-08-11T17:39:08.567Z,21.40
2018-08-11T17:41:37.073Z,21.50
2018-08-11T17:44:05.539Z,21.30
2018-08-11T17:46:34.018Z,20.60
2018-08-11T17:49:02.684Z,19.90
2018-08-11T17:51:31.496Z,19.00
2018-08-11T17:54:00.483Z,18.30
2018-08-11T17:56:29.604Z,17.70
2018-08-11T17:58:58.572Z,17.40
2018-08-11T18:01:27.677Z,17.20
2018-08-11T18:03:56.803Z,17.00
2018-08-11T18:06:25.239Z,16.70
2018-08-11T18:08:54.113Z,16.50
2018-08-11T18:11:23.636Z,16.40
2018-08-11T18:13:52.320Z,16.30
2018-08-11T18:16:21.825Z,16.20
2018-08-11T18:18:50.397Z,16.00
2018-08-11T18:21:20.243Z,15.80
2018-08-11T18:23:48.932Z,15.70
2018-08-11T18:26:17.448Z,15.60
2018-08-11T18:28:45.887Z,15.50
2018-08-11T18:31:14.417Z,15.40
2018-08-11T18:33:42.997Z,15.30
2018-08-11T18:36:11.559Z,15.20
2018-08-11T18:38:40.051Z,15.00
2018-08-11T18:41:08.673Z,14.80
2018-08-11T18:43:37.321Z,14.70
2018-08-11T18:46:05.951Z,14.50
2018-08-11T18:48:34.619Z,14.30
2018-08-11T18:51:03.100Z,14.20
2018-08-11T18:53:31.626Z,14.00
2018-08-11T18:56:02.157Z,13.70
2018-08-11T18:58:30.549Z,13.50
2018-08-11T19:00:58.948Z,13.30
2018-08-11T19:03:27.678Z,13.10
2018-08-11T19:05:56.407Z,13.00
2018-08-11T19:08:24.930Z,12.90
2018-08-11T19:10:53.633Z,12.70
2018-08-11T19:13:22.040Z,12.60
2018-08-11T19:15:50.785Z,12.40
2018-08-11T19:18:19.872Z,12.30
2018-08-11T19:20:48.355Z,12.20
2018-08-11T19:23:17.111Z,12.00
2018-08-11T19:25:45.680Z,11.90
2018-08-11T19:28:14.230Z,11.80
2018-08-11T19:30:42.883Z,11.70
2018-08-11T19:33:11.331Z,11.60
2018-08-11T19:35:39.661Z,11.50
2018-08-11T19:38:08.228Z,11.40
2018-08-11T19:40:37.045Z,11.40
2018-08-11T19:43:05.656Z,11.20
2018-08-11T19:45:34.179Z,11.10
2018-08-11T19:48:02.760Z,11.00
2018-08-11T19:50:31.463Z,10.90
2018-08-11T19:53:00.104Z,10.80
2018-08-11T19:55:29.239Z,10.80
2018-08-11T19:57:58.035Z,10.60
2018-08-11T20:00:26.693Z,10.40
2018-08-11T20:02:56.488Z,10.20
2018-08-11T20:05:24.837Z,10.20
2018-08-11T20:07:53.441Z,10.10
2018-08-11T20:10:22.352Z,10.00
2018-08-11T20:12:51.015Z,10.10
2018-08-11T20:15:19.607Z,10.00
2018-08-11T20:17:48.032Z,9.80
2018-08-11T20:20:16.707Z,9.80
2018-08-11T20:22:45.273Z,9.80
2018-08-11T20:25:13.708Z,9.80
2018-08-11T20:27:42.998Z,9.70
2018-08-11T20:30:11.862Z,9.60
2018-08-11T20:32:40.585Z,9.70
2018-08-11T20:35:09.203Z,9.70
2018-08-11T20:37:37.706Z,9.60
2018-08-11T20:40:06.235Z,9.50
2018-08-11T20:42:34.625Z,9.50
2018-08-11T20:45:03.375Z,9.40
2018-08-11T20:47:32.012Z,9.20
2018-08-11T20:50:00.724Z,9.20
2018-08-11T20:52:29.195Z,9.10
2018-08-11T20:54:57.583Z,9.10
2018-08-11T20:57:26.389Z,9.00
2018-08-11T20:59:55.036Z,9.00
2018-08-11T21:02:23.455Z,8.90
2018-08-11T21:04:52.855Z,8.80
2018-08-11T21:07:21.405Z,8.70
2018-08-11T21:09:49.899Z,8.60
2018-08-11T21:12:19.105Z,8.50
2018-08-11T21:14:48.611Z,8.40
2018-08-11T21:17:17.009Z,8.50
2018-08-11T21:19:45.828Z,8.50
2018-08-11T21:22:14.309Z,8.40
2018-08-11T21:24:42.866Z,8.50
2018-08-11T21:27:11.307Z,8.50
2018-08-11T21:29:39.900Z,8.40
2018-08-11T21:32:08.259Z,8.50
2018-08-11T21:34:36.923Z,8.50
2018-08-11T21:37:05.327Z,8.40
2018-08-11T21:39:34.022Z,8.30
2018-08-11T21:42:02.529Z,8.30
2018-08-11T21:44:31.362Z,8.30
2018-08-11T21:46:59.901Z,8.40
2018-08-11T21:49:28.555Z,8.20
2018-08-11T21:51:56.975Z,8.10
2018-08-11T21:54:25.455Z,8.10
2018-08-11T21:56:54.291Z,8.10
2018-08-11T21:59:22.651Z,8.10
2018-08-11T22:01:51.911Z,8.10
2018-08-11T22:04:20.365Z,8.10
2018-08-11T22:06:48.704Z,8.00
2018-08-11T22:09:17.422Z,7.90
2018-08-11T22:11:45.864Z,8.00
2018-08-11T22:14:14.401Z,8.00
2018-08-11T22:16:43.086Z,8.00
2018-08-11T22:19:11.581Z,8.10
2018-08-11T22:21:40.083Z,8.20
2018-08-11T22:24:08.602Z,8.20
2018-08-11T22:26:36.926Z,8.20
2018-08-11T22:29:05.541Z,8.20
2018-08-11T22:31:33.894Z,8.30
2018-08-11T22:34:02.478Z,8.20
2018-08-11T22:36:30.815Z,8.10
2018-08-11T22:38:59.256Z,8.10
2018-08-11T22:41:27.848Z,8.10
2018-08-11T22:43:56.420Z,8.10
2018-08-11T22:46:24.887Z,8.00
2018-08-11T22:48:53.282Z,7.90
2018-08-11T22:51:21.657Z,7.90
2018-08-11T22:53:50.017Z,7.90
2018-08-11T22:56:18.856Z,7.90
2018-08-11T22:58:47.197Z,8.00
2018-08-11T23:01:15.506Z,8.00
2018-08-11T23:03:43.926Z,8.00
2018-08-11T23:06:12.511Z,8.00
2018-08-11T23:08:40.920Z,8.00
2018-08-11T23:11:12.266Z,7.90
2018-08-11T23:13:40.868Z,8.00
2018-08-11T23:16:09.307Z,8.00
2018-08-11T23:18:38.076Z,8.00
2018-08-11T23:21:06.423Z,8.00
2018-08-11T23:23:34.974Z,8.00
2018-08-11T23:26:03.526Z,7.90
2018-08-11T23:28:32.210Z,7.90
2018-08-11T23:31:00.933Z,7.80
2018-08-11T23:33:29.284Z,7.80
2018-08-11T23:35:57.607Z,7.70
2018-08-11T23:38:25.915Z,7.70
2018-08-11T23:40:54.420Z,7.70
2018-08-11T23:43:23.118Z,7.70
2018-08-11T23:45:51.524Z,7.70
2018-08-11T23:48:20.071Z,7.70
2018-08-11T23:50:48.433Z,7.60
2018-08-11T23:53:21.743Z,7.50
2018-08-11T23:55:50.150Z,7.50
2018-08-11T23:58:18.720Z,7.40
